sensor_id;sensor_type;location;lat;lon;timestamp;P1;durP1;ratioP1;P2;durP2;ratioP2
74100;SDS011;62462;52.530;21.682;2023-03-07T00:00:42;51.50;;;21.03;;
74100;SDS011;62462;52.530;21.682;2023-03-07T00:03:12;57.10;;;23.23;;
74100;SDS011;62462;52.530;21.682;2023-03-07T00:05:38;49.63;;;22.43;;
74100;SDS011;62462;52.530;21.682;2023-03-07T00:08:05;49.20;;;22.53;;
74100;SDS011;62462;52.530;21.682;2023-03-07T00:10:30;51.73;;;23.00;;
74100;SDS011;62462;52.530;21.682;2023-03-07T00:12:56;58.07;;;22.93;;
74100;SDS011;62462;52.530;21.682;2023-03-07T00:15:22;55.70;;;22.87;;
74100;SDS011;62462;52.530;21.682;2023-03-07T00:17:48;53.40;;;22.27;;
74100;SDS011;62462;52.530;21.682;2023-03-07T00:20:13;52.73;;;22.63;;
74100;SDS011;62462;52.530;21.682;2023-03-07T00:22:40;48.70;;;21.37;;
74100;SDS011;62462;52.530;21.682;2023-03-07T00:25:07;52.07;;;21.37;;
74100;SDS011;62462;52.530;21.682;2023-03-07T00:27:33;50.37;;;22.03;;
74100;SDS011;62462;52.530;21.682;2023-03-07T00:30:00;51.60;;;21.97;;
74100;SDS011;62462;52.530;21.682;2023-03-07T00:32:26;50.00;;;21.47;;
74100;SDS011;62462;52.530;21.682;2023-03-07T00:34:52;49.77;;;21.80;;
74100;SDS011;62462;52.530;21.682;2023-03-07T00:37:19;53.47;;;21.77;;
74100;SDS011;62462;52.530;21.682;2023-03-07T00:39:45;49.57;;;21.90;;
74100;SDS011;62462;52.530;21.682;2023-03-07T00:42:10;44.77;;;21.87;;
74100;SDS011;62462;52.530;21.682;2023-03-07T00:44:36;54.77;;;22.47;;
74100;SDS011;62462;52.530;21.682;2023-03-07T00:47:02;55.00;;;22.93;;
74100;SDS011;62462;52.530;21.682;2023-03-07T00:49:28;55.87;;;22.97;;
74100;SDS011;62462;52.530;21.682;2023-03-07T00:51:54;65.07;;;25.63;;
74100;SDS011;62462;52.530;21.682;2023-03-07T00:54:20;61.43;;;25.27;;
74100;SDS011;62462;52.530;21.682;2023-03-07T00:56:45;56.30;;;23.33;;
74100;SDS011;62462;52.530;21.682;2023-03-07T00:59:11;58.93;;;23.47;;
74100;SDS011;62462;52.530;21.682;2023-03-07T01:01:37;51.67;;;22.23;;
74100;SDS011;62462;52.530;21.682;2023-03-07T01:04:03;47.70;;;21.43;;
74100;SDS011;62462;52.530;21.682;2023-03-07T01:06:30;47.37;;;21.00;;
74100;SDS011;62462;52.530;21.682;2023-03-07T01:08:57;46.17;;;20.27;;
74100;SDS011;62462;52.530;21.682;2023-03-07T01:11:25;51.97;;;21.17;;
74100;SDS011;62462;52.530;21.682;2023-03-07T01:13:53;46.30;;;20.73;;
74100;SDS011;62462;52.530;21.682;2023-03-07T01:16:21;49.20;;;21.87;;
74100;SDS011;62462;52.530;21.682;2023-03-07T01:18:49;49.53;;;21.93;;
74100;SDS011;62462;52.530;21.682;2023-03-07T01:21:27;54.27;;;22.80;;
74100;SDS011;62462;52.530;21.682;2023-03-07T01:23:55;46.93;;;20.50;;
74100;SDS011;62462;52.530;21.682;2023-03-07T01:26:22;52.37;;;21.80;;
74100;SDS011;62462;52.530;21.682;2023-03-07T01:28:50;50.07;;;21.07;;
74100;SDS011;62462;52.530;21.682;2023-03-07T01:31:16;50.13;;;22.67;;
74100;SDS011;62462;52.530;21.682;2023-03-07T01:33:42;47.43;;;21.40;;
74100;SDS011;62462;52.530;21.682;2023-03-07T01:36:14;50.17;;;22.20;;
74100;SDS011;62462;52.530;21.682;2023-03-07T01:38:43;49.77;;;21.47;;
74100;SDS011;62462;52.530;21.682;2023-03-07T01:41:12;52.20;;;21.17;;
74100;SDS011;62462;52.530;21.682;2023-03-07T01:43:39;46.97;;;20.83;;
74100;SDS011;62462;52.530;21.682;2023-03-07T01:48:47;52.60;;;21.43;;
74100;SDS011;62462;52.530;21.682;2023-03-07T01:51:16;52.10;;;20.97;;
74100;SDS011;62462;52.530;21.682;2023-03-07T01:53:43;54.50;;;22.47;;
74100;SDS011;62462;52.530;21.682;2023-03-07T01:56:09;85.93;;;30.17;;
74100;SDS011;62462;52.530;21.682;2023-03-07T01:58:36;90.40;;;29.93;;
74100;SDS011;62462;52.530;21.682;2023-03-07T02:01:03;81.03;;;28.17;;
74100;SDS011;62462;52.530;21.682;2023-03-07T02:06:21;77.60;;;27.97;;
74100;SDS011;62462;52.530;21.682;2023-03-07T02:08:49;59.07;;;25.70;;
74100;SDS011;62462;52.530;21.682;2023-03-07T02:11:17;56.90;;;23.77;;
74100;SDS011;62462;52.530;21.682;2023-03-07T02:13:42;61.50;;;23.07;;
74100;SDS011;62462;52.530;21.682;2023-03-07T02:16:09;54.70;;;22.43;;
74100;SDS011;62462;52.530;21.682;2023-03-07T02:18:45;46.27;;;20.03;;
74100;SDS011;62462;52.530;21.682;2023-03-07T02:24:07;45.67;;;19.53;;
74100;SDS011;62462;52.530;21.682;2023-03-07T02:26:42;48.23;;;19.93;;
74100;SDS011;62462;52.530;21.682;2023-03-07T02:29:13;50.63;;;20.73;;
74100;SDS011;62462;52.530;21.682;2023-03-07T02:31:39;48.83;;;20.47;;
74100;SDS011;62462;52.530;21.682;2023-03-07T02:34:25;45.73;;;19.83;;
74100;SDS011;62462;52.530;21.682;2023-03-07T02:36:53;45.03;;;19.00;;
74100;SDS011;62462;52.530;21.682;2023-03-07T02:39:53;50.03;;;20.47;;
74100;SDS011;62462;52.530;21.682;2023-03-07T02:42:24;47.03;;;19.53;;
74100;SDS011;62462;52.530;21.682;2023-03-07T02:44:56;43.40;;;18.90;;
74100;SDS011;62462;52.530;21.682;2023-03-07T02:47:24;48.10;;;19.70;;
74100;SDS011;62462;52.530;21.682;2023-03-07T02:49:51;43.47;;;19.53;;
74100;SDS011;62462;52.530;21.682;2023-03-07T02:52:17;44.23;;;19.93;;
74100;SDS011;62462;52.530;21.682;2023-03-07T02:54:43;45.70;;;19.70;;
74100;SDS011;62462;52.530;21.682;2023-03-07T02:57:09;48.10;;;19.93;;
74100;SDS011;62462;52.530;21.682;2023-03-07T02:59:34;45.77;;;20.13;;
74100;SDS011;62462;52.530;21.682;2023-03-07T03:02:01;45.27;;;19.30;;
74100;SDS011;62462;52.530;21.682;2023-03-07T03:04:27;45.00;;;19.13;;
74100;SDS011;62462;52.530;21.682;2023-03-07T03:06:53;46.40;;;19.23;;
74100;SDS011;62462;52.530;21.682;2023-03-07T03:09:19;43.07;;;18.37;;
74100;SDS011;62462;52.530;21.682;2023-03-07T03:11:45;43.30;;;17.53;;
74100;SDS011;62462;52.530;21.682;2023-03-07T03:14:11;39.03;;;17.33;;
74100;SDS011;62462;52.530;21.682;2023-03-07T03:16:36;50.53;;;19.93;;
74100;SDS011;62462;52.530;21.682;2023-03-07T03:19:04;49.53;;;19.97;;
74100;SDS011;62462;52.530;21.682;2023-03-07T03:21:30;45.60;;;20.17;;
74100;SDS011;62462;52.530;21.682;2023-03-07T03:23:56;49.77;;;21.67;;
74100;SDS011;62462;52.530;21.682;2023-03-07T03:26:22;50.33;;;22.00;;
74100;SDS011;62462;52.530;21.682;2023-03-07T03:28:47;52.53;;;22.37;;
74100;SDS011;62462;52.530;21.682;2023-03-07T03:31:13;48.23;;;21.50;;
74100;SDS011;62462;52.530;21.682;2023-03-07T03:33:40;48.10;;;21.23;;
74100;SDS011;62462;52.530;21.682;2023-03-07T03:36:09;54.13;;;22.27;;
74100;SDS011;62462;52.530;21.682;2023-03-07T03:38:37;48.37;;;21.47;;
74100;SDS011;62462;52.530;21.682;2023-03-07T03:41:03;51.43;;;22.07;;
74100;SDS011;62462;52.530;21.682;2023-03-07T03:43:30;51.43;;;20.80;;
74100;SDS011;62462;52.530;21.682;2023-03-07T03:45:56;53.97;;;23.00;;
74100;SDS011;62462;52.530;21.682;2023-03-07T03:48:22;52.60;;;22.27;;
74100;SDS011;62462;52.530;21.682;2023-03-07T03:50:48;50.93;;;21.37;;
74100;SDS011;62462;52.530;21.682;2023-03-07T03:53:14;50.27;;;20.83;;
74100;SDS011;62462;52.530;21.682;2023-03-07T03:55:40;50.70;;;21.30;;
74100;SDS011;62462;52.530;21.682;2023-03-07T03:58:06;53.27;;;22.17;;
74100;SDS011;62462;52.530;21.682;2023-03-07T04:00:31;50.37;;;21.67;;
74100;SDS011;62462;52.530;21.682;2023-03-07T04:02:57;50.70;;;21.37;;
74100;SDS011;62462;52.530;21.682;2023-03-07T04:05:23;52.10;;;21.60;;
74100;SDS011;62462;52.530;21.682;2023-03-07T04:07:48;46.50;;;20.67;;
74100;SDS011;62462;52.530;21.682;2023-03-07T04:10:14;51.90;;;21.23;;
74100;SDS011;62462;52.530;21.682;2023-03-07T04:12:40;53.57;;;22.77;;
74100;SDS011;62462;52.530;21.682;2023-03-07T04:15:06;52.47;;;22.37;;
74100;SDS011;62462;52.530;21.682;2023-03-07T04:17:34;58.80;;;22.50;;
74100;SDS011;62462;52.530;21.682;2023-03-07T04:20:00;51.83;;;21.43;;
74100;SDS011;62462;52.530;21.682;2023-03-07T04:22:28;55.27;;;23.13;;
74100;SDS011;62462;52.530;21.682;2023-03-07T04:24:54;51.77;;;21.23;;
74100;SDS011;62462;52.530;21.682;2023-03-07T04:27:20;52.23;;;20.40;;
74100;SDS011;62462;52.530;21.682;2023-03-07T04:29:45;51.83;;;21.73;;
74100;SDS011;62462;52.530;21.682;2023-03-07T04:32:11;48.30;;;21.07;;
74100;SDS011;62462;52.530;21.682;2023-03-07T04:34:37;48.43;;;21.57;;
74100;SDS011;62462;52.530;21.682;2023-03-07T04:37:02;48.30;;;21.20;;
74100;SDS011;62462;52.530;21.682;2023-03-07T04:39:28;45.53;;;20.63;;
74100;SDS011;62462;52.530;21.682;2023-03-07T04:41:54;50.63;;;21.83;;
74100;SDS011;62462;52.530;21.682;2023-03-07T04:44:19;53.30;;;21.30;;
74100;SDS011;62462;52.530;21.682;2023-03-07T04:46:45;43.20;;;19.97;;
74100;SDS011;62462;52.530;21.682;2023-03-07T04:49:11;50.00;;;21.30;;
74100;SDS011;62462;52.530;21.682;2023-03-07T04:51:36;49.57;;;20.47;;
74100;SDS011;62462;52.530;21.682;2023-03-07T04:54:02;52.97;;;21.97;;
74100;SDS011;62462;52.530;21.682;2023-03-07T04:56:28;49.83;;;22.07;;
74100;SDS011;62462;52.530;21.682;2023-03-07T04:58:54;51.13;;;22.23;;
74100;SDS011;62462;52.530;21.682;2023-03-07T05:01:19;57.93;;;23.17;;
74100;SDS011;62462;52.530;21.682;2023-03-07T05:03:45;52.63;;;21.37;;
74100;SDS011;62462;52.530;21.682;2023-03-07T05:06:14;51.97;;;21.53;;
74100;SDS011;62462;52.530;21.682;2023-03-07T05:08:39;52.73;;;20.53;;
74100;SDS011;62462;52.530;21.682;2023-03-07T05:11:05;53.40;;;23.30;;
74100;SDS011;62462;52.530;21.682;2023-03-07T05:13:31;49.50;;;21.73;;
74100;SDS011;62462;52.530;21.682;2023-03-07T05:15:57;54.50;;;21.77;;
74100;SDS011;62462;52.530;21.682;2023-03-07T05:18:23;49.13;;;21.30;;
74100;SDS011;62462;52.530;21.682;2023-03-07T05:20:50;49.67;;;21.03;;
74100;SDS011;62462;52.530;21.682;2023-03-07T05:23:16;48.30;;;20.37;;
74100;SDS011;62462;52.530;21.682;2023-03-07T05:25:43;47.30;;;19.40;;
74100;SDS011;62462;52.530;21.682;2023-03-07T05:28:10;47.13;;;20.87;;
74100;SDS011;62462;52.530;21.682;2023-03-07T05:30:36;46.97;;;20.40;;
74100;SDS011;62462;52.530;21.682;2023-03-07T05:33:02;48.50;;;19.93;;
74100;SDS011;62462;52.530;21.682;2023-03-07T05:35:28;47.83;;;20.20;;
74100;SDS011;62462;52.530;21.682;2023-03-07T05:37:54;51.10;;;21.00;;
74100;SDS011;62462;52.530;21.682;2023-03-07T05:40:19;52.13;;;21.77;;
74100;SDS011;62462;52.530;21.682;2023-03-07T05:42:45;57.07;;;24.23;;
74100;SDS011;62462;52.530;21.682;2023-03-07T05:45:11;59.20;;;23.50;;
74100;SDS011;62462;52.530;21.682;2023-03-07T05:47:37;68.07;;;25.13;;
74100;SDS011;62462;52.530;21.682;2023-03-07T05:50:03;72.63;;;28.67;;
74100;SDS011;62462;52.530;21.682;2023-03-07T05:52:30;64.70;;;27.30;;
74100;SDS011;62462;52.530;21.682;2023-03-07T05:54:56;74.27;;;30.20;;
74100;SDS011;62462;52.530;21.682;2023-03-07T05:57:22;75.27;;;29.97;;
74100;SDS011;62462;52.530;21.682;2023-03-07T05:59:48;65.10;;;25.43;;
74100;SDS011;62462;52.530;21.682;2023-03-07T06:02:13;64.70;;;26.67;;
74100;SDS011;62462;52.530;21.682;2023-03-07T06:04:39;67.40;;;25.67;;
74100;SDS011;62462;52.530;21.682;2023-03-07T06:07:05;53.63;;;22.97;;
74100;SDS011;62462;52.530;21.682;2023-03-07T06:09:31;55.83;;;23.73;;
74100;SDS011;62462;52.530;21.682;2023-03-07T06:11:56;58.03;;;23.60;;
74100;SDS011;62462;52.530;21.682;2023-03-07T06:14:22;54.93;;;22.87;;
74100;SDS011;62462;52.530;21.682;2023-03-07T06:16:48;63.10;;;28.13;;
74100;SDS011;62462;52.530;21.682;2023-03-07T06:19:14;88.87;;;37.83;;
74100;SDS011;62462;52.530;21.682;2023-03-07T06:21:40;87.53;;;38.37;;
74100;SDS011;62462;52.530;21.682;2023-03-07T06:24:07;94.83;;;40.93;;
74100;SDS011;62462;52.530;21.682;2023-03-07T06:26:32;100.67;;;40.87;;
74100;SDS011;62462;52.530;21.682;2023-03-07T06:28:59;99.77;;;40.77;;
74100;SDS011;62462;52.530;21.682;2023-03-07T06:31:24;112.60;;;43.50;;
74100;SDS011;62462;52.530;21.682;2023-03-07T06:33:50;97.63;;;40.33;;
74100;SDS011;62462;52.530;21.682;2023-03-07T06:36:17;106.87;;;40.87;;
74100;SDS011;62462;52.530;21.682;2023-03-07T06:38:43;110.90;;;43.17;;
74100;SDS011;62462;52.530;21.682;2023-03-07T06:41:09;108.13;;;45.47;;
74100;SDS011;62462;52.530;21.682;2023-03-07T06:43:35;89.60;;;38.53;;
74100;SDS011;62462;52.530;21.682;2023-03-07T06:46:01;91.80;;;37.37;;
74100;SDS011;62462;52.530;21.682;2023-03-07T06:48:27;81.43;;;32.47;;
74100;SDS011;62462;52.530;21.682;2023-03-07T06:50:53;68.00;;;31.13;;
74100;SDS011;62462;52.530;21.682;2023-03-07T06:53:19;63.27;;;26.07;;
74100;SDS011;62462;52.530;21.682;2023-03-07T06:55:48;65.10;;;28.00;;
74100;SDS011;62462;52.530;21.682;2023-03-07T06:58:15;60.13;;;26.77;;
74100;SDS011;62462;52.530;21.682;2023-03-07T07:00:41;50.93;;;22.80;;
74100;SDS011;62462;52.530;21.682;2023-03-07T07:03:09;48.80;;;21.43;;
74100;SDS011;62462;52.530;21.682;2023-03-07T07:05:37;43.70;;;19.43;;
74100;SDS011;62462;52.530;21.682;2023-03-07T07:08:03;44.93;;;20.10;;
74100;SDS011;62462;52.530;21.682;2023-03-07T07:10:29;45.83;;;21.57;;
74100;SDS011;62462;52.530;21.682;2023-03-07T07:12:55;72.17;;;29.53;;
74100;SDS011;62462;52.530;21.682;2023-03-07T07:15:22;57.90;;;24.70;;
74100;SDS011;62462;52.530;21.682;2023-03-07T07:17:52;54.63;;;22.60;;
74100;SDS011;62462;52.530;21.682;2023-03-07T07:20:18;45.00;;;18.90;;
74100;SDS011;62462;52.530;21.682;2023-03-07T07:22:43;48.43;;;20.20;;
74100;SDS011;62462;52.530;21.682;2023-03-07T07:25:09;42.63;;;19.60;;
74100;SDS011;62462;52.530;21.682;2023-03-07T07:27:35;44.47;;;19.90;;
74100;SDS011;62462;52.530;21.682;2023-03-07T07:30:02;43.90;;;18.83;;
74100;SDS011;62462;52.530;21.682;2023-03-07T07:32:29;44.27;;;20.23;;
74100;SDS011;62462;52.530;21.682;2023-03-07T07:34:56;43.03;;;20.13;;
74100;SDS011;62462;52.530;21.682;2023-03-07T07:37:22;44.47;;;20.37;;
74100;SDS011;62462;52.530;21.682;2023-03-07T07:39:48;49.37;;;20.03;;
74100;SDS011;62462;52.530;21.682;2023-03-07T07:42:14;49.00;;;21.70;;
74100;SDS011;62462;52.530;21.682;2023-03-07T07:44:40;50.43;;;21.57;;
74100;SDS011;62462;52.530;21.682;2023-03-07T07:47:06;60.70;;;27.23;;
74100;SDS011;62462;52.530;21.682;2023-03-07T07:49:32;70.63;;;29.17;;
74100;SDS011;62462;52.530;21.682;2023-03-07T07:51:57;111.97;;;38.80;;
74100;SDS011;62462;52.530;21.682;2023-03-07T07:54:23;159.17;;;47.23;;
74100;SDS011;62462;52.530;21.682;2023-03-07T07:56:49;104.13;;;34.47;;
74100;SDS011;62462;52.530;21.682;2023-03-07T07:59:15;162.50;;;49.73;;
74100;SDS011;62462;52.530;21.682;2023-03-07T08:01:40;53.53;;;24.27;;
74100;SDS011;62462;52.530;21.682;2023-03-07T08:04:07;52.23;;;23.13;;
74100;SDS011;62462;52.530;21.682;2023-03-07T08:06:32;50.87;;;22.90;;
74100;SDS011;62462;52.530;21.682;2023-03-07T08:08:58;54.33;;;23.47;;
74100;SDS011;62462;52.530;21.682;2023-03-07T08:11:24;65.23;;;28.20;;
74100;SDS011;62462;52.530;21.682;2023-03-07T08:13:50;54.33;;;25.03;;
74100;SDS011;62462;52.530;21.682;2023-03-07T08:16:17;46.87;;;21.27;;
74100;SDS011;62462;52.530;21.682;2023-03-07T08:18:54;54.40;;;23.77;;
74100;SDS011;62462;52.530;21.682;2023-03-07T08:21:21;48.47;;;20.13;;
74100;SDS011;62462;52.530;21.682;2023-03-07T08:23:48;50.53;;;23.40;;
74100;SDS011;62462;52.530;21.682;2023-03-07T08:26:14;46.83;;;21.70;;
74100;SDS011;62462;52.530;21.682;2023-03-07T08:28:41;53.37;;;23.90;;
74100;SDS011;62462;52.530;21.682;2023-03-07T08:33:40;47.97;;;21.27;;
74100;SDS011;62462;52.530;21.682;2023-03-07T08:36:06;46.30;;;21.02;;
74100;SDS011;62462;52.530;21.682;2023-03-07T08:38:32;48.20;;;22.40;;
74100;SDS011;62462;52.530;21.682;2023-03-07T08:40:59;44.80;;;22.27;;
74100;SDS011;62462;52.530;21.682;2023-03-07T08:43:26;49.53;;;22.67;;
74100;SDS011;62462;52.530;21.682;2023-03-07T08:45:54;47.17;;;20.90;;
74100;SDS011;62462;52.530;21.682;2023-03-07T08:48:20;44.70;;;19.97;;
74100;SDS011;62462;52.530;21.682;2023-03-07T08:50:46;46.43;;;21.00;;
74100;SDS011;62462;52.530;21.682;2023-03-07T08:53:12;47.30;;;21.23;;
74100;SDS011;62462;52.530;21.682;2023-03-07T08:55:38;45.83;;;20.73;;
74100;SDS011;62462;52.530;21.682;2023-03-07T08:58:04;41.77;;;19.57;;
74100;SDS011;62462;52.530;21.682;2023-03-07T09:00:30;45.38;;;21.77;;
74100;SDS011;62462;52.530;21.682;2023-03-07T09:02:56;42.35;;;20.42;;
74100;SDS011;62462;52.530;21.682;2023-03-07T09:05:26;46.30;;;21.50;;
74100;SDS011;62462;52.530;21.682;2023-03-07T09:07:52;49.13;;;21.75;;
74100;SDS011;62462;52.530;21.682;2023-03-07T09:10:19;42.80;;;19.42;;
74100;SDS011;62462;52.530;21.682;2023-03-07T09:12:46;47.10;;;21.70;;
74100;SDS011;62462;52.530;21.682;2023-03-07T09:15:12;39.13;;;19.10;;
74100;SDS011;62462;52.530;21.682;2023-03-07T09:17:38;38.08;;;19.05;;
74100;SDS011;62462;52.530;21.682;2023-03-07T09:20:04;42.65;;;20.42;;
74100;SDS011;62462;52.530;21.682;2023-03-07T09:22:31;41.30;;;19.92;;
74100;SDS011;62462;52.530;21.682;2023-03-07T09:24:57;41.83;;;18.85;;
74100;SDS011;62462;52.530;21.682;2023-03-07T09:27:23;53.70;;;24.00;;
74100;SDS011;62462;52.530;21.682;2023-03-07T09:29:48;84.03;;;30.52;;
74100;SDS011;62462;52.530;21.682;2023-03-07T09:32:14;44.38;;;20.45;;
74100;SDS011;62462;52.530;21.682;2023-03-07T09:34:40;53.03;;;22.48;;
74100;SDS011;62462;52.530;21.682;2023-03-07T09:37:06;51.33;;;21.80;;
74100;SDS011;62462;52.530;21.682;2023-03-07T09:39:32;69.15;;;28.90;;
74100;SDS011;62462;52.530;21.682;2023-03-07T09:42:05;50.25;;;22.00;;
74100;SDS011;62462;52.530;21.682;2023-03-07T09:49:57;33.58;;;16.65;;
74100;SDS011;62462;52.530;21.682;2023-03-07T09:52:26;43.30;;;18.98;;
74100;SDS011;62462;52.530;21.682;2023-03-07T09:54:58;37.83;;;17.75;;
74100;SDS011;62462;52.530;21.682;2023-03-07T09:57:29;49.58;;;21.65;;
74100;SDS011;62462;52.530;21.682;2023-03-07T09:59:58;36.35;;;17.55;;
74100;SDS011;62462;52.530;21.682;2023-03-07T10:02:39;30.67;;;15.65;;
74100;SDS011;62462;52.530;21.682;2023-03-07T10:05:26;33.75;;;16.30;;
74100;SDS011;62462;52.530;21.682;2023-03-07T10:07:56;34.08;;;14.70;;
74100;SDS011;62462;52.530;21.682;2023-03-07T10:10:27;27.45;;;13.32;;
74100;SDS011;62462;52.530;21.682;2023-03-07T10:15:42;27.70;;;12.55;;
74100;SDS011;62462;52.530;21.682;2023-03-07T10:26:28;26.83;;;13.40;;
74100;SDS011;62462;52.530;21.682;2023-03-07T10:28:58;25.33;;;11.45;;
74100;SDS011;62462;52.530;21.682;2023-03-07T10:31:31;24.17;;;10.73;;
74100;SDS011;62462;52.530;21.682;2023-03-07T10:33:59;23.00;;;11.32;;
74100;SDS011;62462;52.530;21.682;2023-03-07T10:36:38;28.30;;;13.18;;
74100;SDS011;62462;52.530;21.682;2023-03-07T10:41:53;22.90;;;11.05;;
74100;SDS011;62462;52.530;21.682;2023-03-07T10:44:19;29.52;;;13.05;;
74100;SDS011;62462;52.530;21.682;2023-03-07T10:46:46;23.20;;;12.20;;
74100;SDS011;62462;52.530;21.682;2023-03-07T10:49:20;24.48;;;11.52;;
74100;SDS011;62462;52.530;21.682;2023-03-07T10:52:16;24.30;;;10.95;;
74100;SDS011;62462;52.530;21.682;2023-03-07T10:54:48;25.70;;;12.38;;
74100;SDS011;62462;52.530;21.682;2023-03-07T10:57:17;23.38;;;11.30;;
74100;SDS011;62462;52.530;21.682;2023-03-07T10:59:50;30.92;;;13.82;;
74100;SDS011;62462;52.530;21.682;2023-03-07T11:05:02;29.63;;;13.27;;
74100;SDS011;62462;52.530;21.682;2023-03-07T11:07:48;31.30;;;14.85;;
74100;SDS011;62462;52.530;21.682;2023-03-07T11:13:14;34.13;;;15.60;;
74100;SDS011;62462;52.530;21.682;2023-03-07T11:15:44;30.08;;;14.18;;
74100;SDS011;62462;52.530;21.682;2023-03-07T11:20:54;35.13;;;17.02;;
74100;SDS011;62462;52.530;21.682;2023-03-07T11:23:22;37.22;;;17.75;;
74100;SDS011;62462;52.530;21.682;2023-03-07T11:25:55;34.95;;;16.55;;
74100;SDS011;62462;52.530;21.682;2023-03-07T11:28:37;39.33;;;17.08;;
74100;SDS011;62462;52.530;21.682;2023-03-07T11:36:34;32.17;;;14.05;;
74100;SDS011;62462;52.530;21.682;2023-03-07T11:41:46;32.28;;;14.45;;
74100;SDS011;62462;52.530;21.682;2023-03-07T12:00:28;33.15;;;16.02;;
74100;SDS011;62462;52.530;21.682;2023-03-07T12:06:05;37.58;;;16.92;;
74100;SDS011;62462;52.530;21.682;2023-03-07T12:28:17;41.38;;;19.17;;
74100;SDS011;62462;52.530;21.682;2023-03-07T12:33:28;39.08;;;17.05;;
74100;SDS011;62462;52.530;21.682;2023-03-07T12:36:03;35.20;;;16.67;;
74100;SDS011;62462;52.530;21.682;2023-03-07T12:38:39;41.30;;;20.52;;
74100;SDS011;62462;52.530;21.682;2023-03-07T12:41:32;36.50;;;17.85;;
74100;SDS011;62462;52.530;21.682;2023-03-07T12:44:02;40.83;;;18.13;;
74100;SDS011;62462;52.530;21.682;2023-03-07T12:46:35;37.25;;;17.95;;
74100;SDS011;62462;52.530;21.682;2023-03-07T12:49:12;75.20;;;27.27;;
74100;SDS011;62462;52.530;21.682;2023-03-07T12:51:44;38.17;;;17.75;;
74100;SDS011;62462;52.530;21.682;2023-03-07T12:54:20;39.53;;;18.33;;
74100;SDS011;62462;52.530;21.682;2023-03-07T12:57:18;39.03;;;17.80;;
74100;SDS011;62462;52.530;21.682;2023-03-07T12:59:50;42.60;;;19.42;;
74100;SDS011;62462;52.530;21.682;2023-03-07T13:02:26;36.78;;;16.17;;
74100;SDS011;62462;52.530;21.682;2023-03-07T13:04:54;35.30;;;16.63;;
74100;SDS011;62462;52.530;21.682;2023-03-07T13:07:25;34.97;;;16.90;;
74100;SDS011;62462;52.530;21.682;2023-03-07T13:09:54;40.53;;;17.75;;
74100;SDS011;62462;52.530;21.682;2023-03-07T13:27:59;35.78;;;17.80;;
74100;SDS011;62462;52.530;21.682;2023-03-07T13:30:26;35.40;;;16.77;;
74100;SDS011;62462;52.530;21.682;2023-03-07T13:32:55;40.28;;;19.38;;
74100;SDS011;62462;52.530;21.682;2023-03-07T13:42:56;35.15;;;16.50;;
74100;SDS011;62462;52.530;21.682;2023-03-07T13:48:49;31.92;;;16.05;;
74100;SDS011;62462;52.530;21.682;2023-03-07T13:58:48;37.13;;;17.80;;
74100;SDS011;62462;52.530;21.682;2023-03-07T14:01:19;36.88;;;17.38;;
74100;SDS011;62462;52.530;21.682;2023-03-07T14:03:50;40.33;;;17.58;;
74100;SDS011;62462;52.530;21.682;2023-03-07T14:06:17;34.25;;;16.52;;
74100;SDS011;62462;52.530;21.682;2023-03-07T14:08:46;42.08;;;17.15;;
74100;SDS011;62462;52.530;21.682;2023-03-07T14:17:23;35.63;;;15.70;;
74100;SDS011;62462;52.530;21.682;2023-03-07T14:25:32;33.20;;;15.15;;
74100;SDS011;62462;52.530;21.682;2023-03-07T14:28:00;31.17;;;15.38;;
74100;SDS011;62462;52.530;21.682;2023-03-07T14:30:53;31.02;;;15.82;;
74100;SDS011;62462;52.530;21.682;2023-03-07T14:33:30;36.92;;;16.55;;
74100;SDS011;62462;52.530;21.682;2023-03-07T14:36:02;29.92;;;15.30;;
74100;SDS011;62462;52.530;21.682;2023-03-07T14:38:39;30.55;;;14.90;;
74100;SDS011;62462;52.530;21.682;2023-03-07T14:43:46;34.55;;;16.83;;
74100;SDS011;62462;52.530;21.682;2023-03-07T14:51:29;41.28;;;18.85;;
74100;SDS011;62462;52.530;21.682;2023-03-07T14:54:14;34.78;;;16.85;;
74100;SDS011;62462;52.530;21.682;2023-03-07T14:56:43;35.22;;;17.25;;
74100;SDS011;62462;52.530;21.682;2023-03-07T14:59:11;35.08;;;17.20;;
74100;SDS011;62462;52.530;21.682;2023-03-07T15:01:38;35.65;;;17.42;;
74100;SDS011;62462;52.530;21.682;2023-03-07T15:04:20;39.63;;;18.38;;
74100;SDS011;62462;52.530;21.682;2023-03-07T15:06:55;42.20;;;19.33;;
74100;SDS011;62462;52.530;21.682;2023-03-07T15:09:25;43.03;;;20.83;;
74100;SDS011;62462;52.530;21.682;2023-03-07T15:11:59;50.65;;;24.50;;
74100;SDS011;62462;52.530;21.682;2023-03-07T15:14:39;57.40;;;26.33;;
74100;SDS011;62462;52.530;21.682;2023-03-07T15:17:32;51.15;;;23.77;;
74100;SDS011;62462;52.530;21.682;2023-03-07T15:20:09;52.58;;;24.55;;
74100;SDS011;62462;52.530;21.682;2023-03-07T15:22:43;53.05;;;24.58;;
74100;SDS011;62462;52.530;21.682;2023-03-07T15:25:16;53.15;;;25.65;;
74100;SDS011;62462;52.530;21.682;2023-03-07T15:27:45;48.95;;;23.73;;
74100;SDS011;62462;52.530;21.682;2023-03-07T15:30:28;52.47;;;25.95;;
74100;SDS011;62462;52.530;21.682;2023-03-07T15:33:08;53.22;;;25.02;;
74100;SDS011;62462;52.530;21.682;2023-03-07T15:35:35;66.00;;;28.13;;
74100;SDS011;62462;52.530;21.682;2023-03-07T15:38:17;54.30;;;25.45;;
74100;SDS011;62462;52.530;21.682;2023-03-07T15:40:47;57.35;;;24.60;;
74100;SDS011;62462;52.530;21.682;2023-03-07T15:43:23;48.17;;;22.05;;
74100;SDS011;62462;52.530;21.682;2023-03-07T15:46:23;41.88;;;21.40;;
74100;SDS011;62462;52.530;21.682;2023-03-07T15:51:16;45.28;;;21.55;;
74100;SDS011;62462;52.530;21.682;2023-03-07T15:53:52;40.25;;;19.80;;
74100;SDS011;62462;52.530;21.682;2023-03-07T15:56:25;45.60;;;21.30;;
74100;SDS011;62462;52.530;21.682;2023-03-07T15:59:03;46.88;;;22.65;;
74100;SDS011;62462;52.530;21.682;2023-03-07T16:10:09;52.00;;;24.23;;
74100;SDS011;62462;52.530;21.682;2023-03-07T16:12:35;48.08;;;23.10;;
74100;SDS011;62462;52.530;21.682;2023-03-07T16:15:17;48.72;;;22.85;;
74100;SDS011;62462;52.530;21.682;2023-03-07T16:17:45;45.25;;;21.83;;
74100;SDS011;62462;52.530;21.682;2023-03-07T16:20:21;48.47;;;22.50;;
74100;SDS011;62462;52.530;21.682;2023-03-07T16:22:49;47.17;;;23.58;;
74100;SDS011;62462;52.530;21.682;2023-03-07T16:25:16;50.50;;;22.40;;
74100;SDS011;62462;52.530;21.682;2023-03-07T16:27:45;43.33;;;20.85;;
74100;SDS011;62462;52.530;21.682;2023-03-07T16:30:15;52.63;;;27.38;;
74100;SDS011;62462;52.530;21.682;2023-03-07T16:32:43;46.75;;;22.00;;
74100;SDS011;62462;52.530;21.682;2023-03-07T16:35:13;44.50;;;22.15;;
74100;SDS011;62462;52.530;21.682;2023-03-07T16:37:44;47.40;;;24.67;;
74100;SDS011;62462;52.530;21.682;2023-03-07T16:40:14;50.08;;;23.50;;
74100;SDS011;62462;52.530;21.682;2023-03-07T16:42:47;40.60;;;20.15;;
74100;SDS011;62462;52.530;21.682;2023-03-07T16:45:22;38.05;;;19.05;;
74100;SDS011;62462;52.530;21.682;2023-03-07T16:47:52;34.72;;;17.63;;
74100;SDS011;62462;52.530;21.682;2023-03-07T16:50:30;30.75;;;15.95;;